sensor_id;sensor_type;location;lat;lon;timestamp;pressure;altitude;pressure_sealevel;temperature;humidity
79366;BME280;68833;53.160;17.920;2023-05-29T00:02:03;101096.77;;;12.82;54.12
79366;BME280;68833;53.160;17.920;2023-05-29T00:04:33;101096.23;;;12.84;54.06
79366;BME280;68833;53.160;17.920;2023-05-29T00:06:59;101100.10;;;12.84;54.30
79366;BME280;68833;53.160;17.920;2023-05-29T00:09:26;101098.52;;;12.84;54.36
79366;BME280;68833;53.160;17.920;2023-05-29T00:11:53;101099.92;;;12.85;54.37
79366;BME280;68833;53.160;17.920;2023-05-29T00:14:20;101099.92;;;12.85;54.43
79366;BME280;68833;53.160;17.920;2023-05-29T00:16:46;101097.12;;;12.83;54.54
79366;BME280;68833;53.160;17.920;2023-05-29T00:19:13;101096.79;;;12.81;54.64
79366;BME280;68833;53.160;17.920;2023-05-29T00:21:40;101098.03;;;12.80;54.73
79366;BME280;68833;53.160;17.920;2023-05-29T00:24:07;101099.63;;;12.80;54.69
79366;BME280;68833;53.160;17.920;2023-05-29T00:26:36;101099.64;;;12.79;54.77
79366;BME280;68833;53.160;17.920;2023-05-29T00:29:02;101101.60;;;12.77;54.82
79366;BME280;68833;53.160;17.920;2023-05-29T00:31:31;101095.45;;;12.75;54.93
79366;BME280;68833;53.160;17.920;2023-05-29T00:33:59;101095.84;;;12.72;55.03
79366;BME280;68833;53.160;17.920;2023-05-29T00:36:25;101096.44;;;12.66;55.01
79366;BME280;68833;53.160;17.920;2023-05-29T00:38:52;101096.14;;;12.61;55.24
79366;BME280;68833;53.160;17.920;2023-05-29T00:41:21;101098.63;;;12.57;55.33
79366;BME280;68833;53.160;17.920;2023-05-29T00:43:51;101098.50;;;12.54;55.50
79366;BME280;68833;53.160;17.920;2023-05-29T00:46:18;101099.23;;;12.51;55.27
79366;BME280;68833;53.160;17.920;2023-05-29T00:48:49;101098.71;;;12.50;55.72
79366;BME280;68833;53.160;17.920;2023-05-29T00:51:16;101095.36;;;12.50;55.72
79366;BME280;68833;53.160;17.920;2023-05-29T00:53:44;101100.85;;;12.48;55.88
79366;BME280;68833;53.160;17.920;2023-05-29T00:56:12;101096.81;;;12.46;55.84
79366;BME280;68833;53.160;17.920;2023-05-29T00:58:39;101098.74;;;12.47;55.87
79366;BME280;68833;53.160;17.920;2023-05-29T01:01:06;101096.12;;;12.46;55.94
79366;BME280;68833;53.160;17.920;2023-05-29T01:03:32;101098.58;;;12.47;56.01
79366;BME280;68833;53.160;17.920;2023-05-29T01:05:59;101101.93;;;12.45;55.99
79366;BME280;68833;53.160;17.920;2023-05-29T01:08:26;101104.77;;;12.44;56.16
79366;BME280;68833;53.160;17.920;2023-05-29T01:10:56;101108.13;;;12.42;56.16
79366;BME280;68833;53.160;17.920;2023-05-29T01:13:30;101104.79;;;12.42;56.12
79366;BME280;68833;53.160;17.920;2023-05-29T01:16:03;101104.27;;;12.40;55.99
79366;BME280;68833;53.160;17.920;2023-05-29T01:26:48;101103.55;;;12.24;56.25
79366;BME280;68833;53.160;17.920;2023-05-29T01:29:28;101100.78;;;12.19;56.33
79366;BME280;68833;53.160;17.920;2023-05-29T01:31:58;101099.24;;;12.14;56.57
79366;BME280;68833;53.160;17.920;2023-05-29T01:34:24;101093.12;;;12.09;56.60
79366;BME280;68833;53.160;17.920;2023-05-29T01:36:51;101090.86;;;12.05;56.72
79366;BME280;68833;53.160;17.920;2023-05-29T01:39:17;101093.73;;;12.00;56.73
79366;BME280;68833;53.160;17.920;2023-05-29T01:41:45;101100.97;;;11.94;56.99
79366;BME280;68833;53.160;17.920;2023-05-29T01:44:12;101105.58;;;11.89;57.09
79366;BME280;68833;53.160;17.920;2023-05-29T01:46:41;101107.73;;;11.83;57.43
79366;BME280;68833;53.160;17.920;2023-05-29T01:49:11;101105.13;;;11.78;57.53
79366;BME280;68833;53.160;17.920;2023-05-29T01:51:40;101109.39;;;11.73;57.48
79366;BME280;68833;53.160;17.920;2023-05-29T01:54:09;101110.99;;;11.70;57.56
79366;BME280;68833;53.160;17.920;2023-05-29T01:56:36;101110.31;;;11.68;57.62
79366;BME280;68833;53.160;17.920;2023-05-29T01:59:03;101107.13;;;11.68;57.76
79366;BME280;68833;53.160;17.920;2023-05-29T02:01:31;101109.42;;;11.67;57.89
79366;BME280;68833;53.160;17.920;2023-05-29T02:04:03;101111.88;;;11.68;58.04
79366;BME280;68833;53.160;17.920;2023-05-29T02:06:34;101108.55;;;11.69;58.08
79366;BME280;68833;53.160;17.920;2023-05-29T02:09:01;101108.70;;;11.70;58.00
79366;BME280;68833;53.160;17.920;2023-05-29T02:11:28;101103.95;;;11.70;57.97
79366;BME280;68833;53.160;17.920;2023-05-29T02:13:54;101110.13;;;11.69;57.98
79366;BME280;68833;53.160;17.920;2023-05-29T02:16:21;101110.50;;;11.65;58.24
79366;BME280;68833;53.160;17.920;2023-05-29T02:18:48;101110.16;;;11.62;58.15
79366;BME280;68833;53.160;17.920;2023-05-29T02:21:14;101108.06;;;11.60;58.41
79366;BME280;68833;53.160;17.920;2023-05-29T02:23:45;101109.66;;;11.57;58.37
79366;BME280;68833;53.160;17.920;2023-05-29T02:26:22;101109.86;;;11.53;58.42
79366;BME280;68833;53.160;17.920;2023-05-29T02:28:50;101110.95;;;11.48;58.65
79366;BME280;68833;53.160;17.920;2023-05-29T02:31:16;101109.92;;;11.42;58.85
79366;BME280;68833;53.160;17.920;2023-05-29T02:33:43;101109.42;;;11.38;58.89
79366;BME280;68833;53.160;17.920;2023-05-29T02:36:09;101109.27;;;11.35;59.07
79366;BME280;68833;53.160;17.920;2023-05-29T02:38:37;101111.73;;;11.33;59.26
79366;BME280;68833;53.160;17.920;2023-05-29T02:41:06;101109.98;;;11.32;59.26
79366;BME280;68833;53.160;17.920;2023-05-29T02:43:32;101104.36;;;11.34;59.37
79366;BME280;68833;53.160;17.920;2023-05-29T02:45:58;101098.73;;;11.33;59.39
79366;BME280;68833;53.160;17.920;2023-05-29T02:48:25;101096.27;;;11.34;59.46
79366;BME280;68833;53.160;17.920;2023-05-29T02:50:52;101093.80;;;11.33;59.59
79366;BME280;68833;53.160;17.920;2023-05-29T02:53:18;101095.38;;;11.33;59.77
79366;BME280;68833;53.160;17.920;2023-05-29T02:55:44;101096.45;;;11.32;59.90
79366;BME280;68833;53.160;17.920;2023-05-29T02:58:11;101097.15;;;11.29;60.14
79366;BME280;68833;53.160;17.920;2023-05-29T03:00:37;101098.75;;;11.28;59.95
79366;BME280;68833;53.160;17.920;2023-05-29T03:03:04;101098.95;;;11.25;59.85
79366;BME280;68833;53.160;17.920;2023-05-29T03:05:30;101098.96;;;11.22;60.16
79366;BME280;68833;53.160;17.920;2023-05-29T03:07:57;101100.23;;;11.17;60.24
79366;BME280;68833;53.160;17.920;2023-05-29T03:10:25;101107.63;;;11.12;60.48
79366;BME280;68833;53.160;17.920;2023-05-29T03:12:51;101106.06;;;11.07;60.59
79366;BME280;68833;53.160;17.920;2023-05-29T03:15:18;101109.23;;;11.05;60.75
79366;BME280;68833;53.160;17.920;2023-05-29T03:17:47;101108.54;;;11.04;60.60
79366;BME280;68833;53.160;17.920;2023-05-29T03:20:16;101106.43;;;11.03;60.90
79366;BME280;68833;53.160;17.920;2023-05-29T03:22:42;101112.06;;;11.03;60.93
79366;BME280;68833;53.160;17.920;2023-05-29T03:25:09;101111.89;;;11.02;61.13
79366;BME280;68833;53.160;17.920;2023-05-29T03:27:36;101115.23;;;11.00;61.47
79366;BME280;68833;53.160;17.920;2023-05-29T03:30:08;101116.48;;;10.98;61.63
79366;BME280;68833;53.160;17.920;2023-05-29T03:32:35;101118.08;;;10.95;61.47
79366;BME280;68833;53.160;17.920;2023-05-29T03:35:02;101116.67;;;10.93;61.46
79366;BME280;68833;53.160;17.920;2023-05-29T03:37:30;101113.86;;;10.92;61.68
79366;BME280;68833;53.160;17.920;2023-05-29T03:39:56;101118.77;;;10.93;61.80
79366;BME280;68833;53.160;17.920;2023-05-29T03:42:23;101122.83;;;10.92;61.88
79366;BME280;68833;53.160;17.920;2023-05-29T03:44:50;101122.98;;;10.92;61.96
79366;BME280;68833;53.160;17.920;2023-05-29T03:47:17;101122.81;;;10.91;62.14
79366;BME280;68833;53.160;17.920;2023-05-29T03:49:44;101121.59;;;10.93;61.92
79366;BME280;68833;53.160;17.920;2023-05-29T03:52:11;101121.41;;;10.98;61.95
79366;BME280;68833;53.160;17.920;2023-05-29T03:54:38;101122.98;;;11.01;62.05
79366;BME280;68833;53.160;17.920;2023-05-29T03:57:04;101122.08;;;11.04;61.89
79366;BME280;68833;53.160;17.920;2023-05-29T03:59:32;101122.60;;;11.06;61.99
79366;BME280;68833;53.160;17.920;2023-05-29T04:02:00;101120.48;;;11.08;62.23
79366;BME280;68833;53.160;17.920;2023-05-29T04:04:26;101126.27;;;11.10;62.20
79366;BME280;68833;53.160;17.920;2023-05-29T04:06:54;101126.79;;;11.12;62.19
79366;BME280;68833;53.160;17.920;2023-05-29T04:09:20;101130.30;;;11.14;62.09
79366;BME280;68833;53.160;17.920;2023-05-29T04:11:46;101128.88;;;11.16;62.12
79366;BME280;68833;53.160;17.920;2023-05-29T04:14:13;101125.18;;;11.18;62.28
79366;BME280;68833;53.160;17.920;2023-05-29T04:16:40;101129.21;;;11.20;62.20
79366;BME280;68833;53.160;17.920;2023-05-29T04:19:07;101126.57;;;11.21;62.41
79366;BME280;68833;53.160;17.920;2023-05-29T04:21:54;101121.81;;;11.27;62.31
79366;BME280;68833;53.160;17.920;2023-05-29T04:24:21;101123.16;;;11.34;62.02
79366;BME280;68833;53.160;17.920;2023-05-29T04:26:48;101124.19;;;11.40;62.55
79366;BME280;68833;53.160;17.920;2023-05-29T04:29:15;101123.27;;;11.46;62.27
79366;BME280;68833;53.160;17.920;2023-05-29T04:31:41;101124.47;;;11.53;62.30
79366;BME280;68833;53.160;17.920;2023-05-29T04:34:08;101130.23;;;11.59;62.31
79366;BME280;68833;53.160;17.920;2023-05-29T04:36:34;101139.35;;;11.65;62.56
79366;BME280;68833;53.160;17.920;2023-05-29T04:39:10;101137.20;;;11.71;62.66
79366;BME280;68833;53.160;17.920;2023-05-29T04:41:36;101137.17;;;11.75;62.38
79366;BME280;68833;53.160;17.920;2023-05-29T04:44:04;101133.45;;;11.79;62.27
79366;BME280;68833;53.160;17.920;2023-05-29T04:46:40;101132.01;;;11.84;62.36
79366;BME280;68833;53.160;17.920;2023-05-29T04:49:11;101136.90;;;11.89;62.23
79366;BME280;68833;53.160;17.920;2023-05-29T04:51:39;101136.36;;;11.94;62.27
79366;BME280;68833;53.160;17.920;2023-05-29T04:54:09;101135.08;;;12.02;62.02
79366;BME280;68833;53.160;17.920;2023-05-29T04:56:36;101132.20;;;12.10;61.99
79366;BME280;68833;53.160;17.920;2023-05-29T04:59:03;101131.07;;;12.19;62.05
79366;BME280;68833;53.160;17.920;2023-05-29T05:01:29;101131.53;;;12.26;61.95
79366;BME280;68833;53.160;17.920;2023-05-29T05:04:00;101128.48;;;12.33;61.90
79366;BME280;68833;53.160;17.920;2023-05-29T05:06:26;101127.89;;;12.40;61.83
79366;BME280;68833;53.160;17.920;2023-05-29T05:08:53;101127.11;;;12.47;61.81
79366;BME280;68833;53.160;17.920;2023-05-29T05:11:21;101129.34;;;12.53;61.60
79366;BME280;68833;53.160;17.920;2023-05-29T05:13:47;101131.39;;;12.59;61.64
79366;BME280;68833;53.160;17.920;2023-05-29T05:16:14;101130.45;;;12.65;61.69
79366;BME280;68833;53.160;17.920;2023-05-29T05:18:40;101134.61;;;12.73;61.58
79366;BME280;68833;53.160;17.920;2023-05-29T05:21:07;101143.34;;;12.80;61.49
79366;BME280;68833;53.160;17.920;2023-05-29T05:23:34;101143.79;;;12.87;61.11
79366;BME280;68833;53.160;17.920;2023-05-29T05:26:02;101142.45;;;12.97;60.96
79366;BME280;68833;53.160;17.920;2023-05-29T05:28:28;101138.99;;;13.05;60.85
79366;BME280;68833;53.160;17.920;2023-05-29T05:30:55;101143.33;;;13.12;60.95
79366;BME280;68833;53.160;17.920;2023-05-29T05:33:23;101142.69;;;13.20;60.68
79366;BME280;68833;53.160;17.920;2023-05-29T05:35:50;101150.16;;;13.29;60.00
79366;BME280;68833;53.160;17.920;2023-05-29T05:38:17;101150.77;;;13.39;59.84
79366;BME280;68833;53.160;17.920;2023-05-29T05:40:44;101154.17;;;13.49;59.44
79366;BME280;68833;53.160;17.920;2023-05-29T05:43:21;101152.42;;;13.61;58.98
79366;BME280;68833;53.160;17.920;2023-05-29T05:46:06;101152.04;;;13.75;58.78
79366;BME280;68833;53.160;17.920;2023-05-29T05:48:34;101152.90;;;13.88;58.58
79366;BME280;68833;53.160;17.920;2023-05-29T05:51:02;101148.48;;;14.00;58.29
79366;BME280;68833;53.160;17.920;2023-05-29T05:53:30;101158.14;;;14.14;58.13
79366;BME280;68833;53.160;17.920;2023-05-29T05:55:58;101165.54;;;14.27;57.43
79366;BME280;68833;53.160;17.920;2023-05-29T05:58:25;101169.94;;;14.39;56.97
79366;BME280;68833;53.160;17.920;2023-05-29T06:00:53;101168.66;;;14.50;56.78
79366;BME280;68833;53.160;17.920;2023-05-29T06:03:19;101170.45;;;14.61;56.37
79366;BME280;68833;53.160;17.920;2023-05-29T06:05:57;101169.77;;;14.70;55.42
79366;BME280;68833;53.160;17.920;2023-05-29T06:08:23;101165.13;;;14.81;55.12
79366;BME280;68833;53.160;17.920;2023-05-29T06:10:53;101162.80;;;14.92;55.43
79366;BME280;68833;53.160;17.920;2023-05-29T06:13:20;101161.81;;;14.97;55.17
79366;BME280;68833;53.160;17.920;2023-05-29T06:15:54;101162.05;;;15.04;55.25
79366;BME280;68833;53.160;17.920;2023-05-29T06:18:22;101159.26;;;15.11;55.02
79366;BME280;68833;53.160;17.920;2023-05-29T06:20:49;101157.13;;;15.19;54.83
79366;BME280;68833;53.160;17.920;2023-05-29T06:23:18;101158.05;;;15.26;54.73
79366;BME280;68833;53.160;17.920;2023-05-29T06:25:45;101160.86;;;15.35;54.97
79366;BME280;68833;53.160;17.920;2023-05-29T06:28:12;101157.11;;;15.45;54.74
79366;BME280;68833;53.160;17.920;2023-05-29T06:30:40;101155.27;;;15.57;54.35
79366;BME280;68833;53.160;17.920;2023-05-29T06:33:08;101152.39;;;15.67;54.49
79366;BME280;68833;53.160;17.920;2023-05-29T06:35:37;101151.09;;;15.77;54.17
79366;BME280;68833;53.160;17.920;2023-05-29T06:38:05;101154.04;;;15.89;53.76
79366;BME280;68833;53.160;17.920;2023-05-29T06:40:33;101151.02;;;15.96;53.41
79366;BME280;68833;53.160;17.920;2023-05-29T06:43:01;101150.99;;;16.05;53.21
79366;BME280;68833;53.160;17.920;2023-05-29T06:45:39;101156.83;;;16.13;52.96
79366;BME280;68833;53.160;17.920;2023-05-29T06:48:07;101155.73;;;16.21;52.73
79366;BME280;68833;53.160;17.920;2023-05-29T06:50:35;101151.25;;;16.30;52.63
79366;BME280;68833;53.160;17.920;2023-05-29T06:53:12;101152.45;;;16.40;52.32
79366;BME280;68833;53.160;17.920;2023-05-29T06:55:52;101155.16;;;16.51;51.82
79366;BME280;68833;53.160;17.920;2023-05-29T06:58:19;101159.52;;;16.61;51.42
79366;BME280;68833;53.160;17.920;2023-05-29T07:00:46;101161.70;;;16.72;51.15
79366;BME280;68833;53.160;17.920;2023-05-29T07:03:22;101165.84;;;16.82;50.25
79366;BME280;68833;53.160;17.920;2023-05-29T07:05:49;101166.14;;;16.92;49.96
79366;BME280;68833;53.160;17.920;2023-05-29T07:08:16;101167.82;;;17.02;49.72
79366;BME280;68833;53.160;17.920;2023-05-29T07:10:44;101170.55;;;17.12;49.04
79366;BME280;68833;53.160;17.920;2023-05-29T07:13:16;101174.17;;;17.22;49.04
79366;BME280;68833;53.160;17.920;2023-05-29T07:15:45;101173.84;;;17.33;49.03
79366;BME280;68833;53.160;17.920;2023-05-29T07:18:13;101177.69;;;17.42;49.33
79366;BME280;68833;53.160;17.920;2023-05-29T07:20:42;101179.53;;;17.51;48.95
79366;BME280;68833;53.160;17.920;2023-05-29T07:23:13;101183.39;;;17.59;48.97
79366;BME280;68833;53.160;17.920;2023-05-29T07:25:43;101183.88;;;17.66;48.68
79366;BME280;68833;53.160;17.920;2023-05-29T07:28:13;101187.05;;;17.73;48.31
79366;BME280;68833;53.160;17.920;2023-05-29T07:30:43;101188.60;;;17.80;48.14
79366;BME280;68833;53.160;17.920;2023-05-29T07:33:13;101188.09;;;17.86;48.37
79366;BME280;68833;53.160;17.920;2023-05-29T07:35:43;101188.58;;;17.93;48.09
79366;BME280;68833;53.160;17.920;2023-05-29T07:38:13;101187.88;;;17.98;48.12
79366;BME280;68833;53.160;17.920;2023-05-29T07:40:42;101189.55;;;18.02;48.21
79366;BME280;68833;53.160;17.920;2023-05-29T07:43:26;101191.39;;;18.11;47.98
79366;BME280;68833;53.160;17.920;2023-05-29T07:45:59;101195.45;;;18.18;47.55
79366;BME280;68833;53.160;17.920;2023-05-29T07:48:30;101193.65;;;18.24;47.98
79366;BME280;68833;53.160;17.920;2023-05-29T07:51:00;101195.94;;;18.30;47.57
79366;BME280;68833;53.160;17.920;2023-05-29T07:53:32;101200.05;;;18.34;47.34
79366;BME280;68833;53.160;17.920;2023-05-29T07:56:03;101203.39;;;18.42;46.98
79366;BME280;68833;53.160;17.920;2023-05-29T07:58:32;101203.80;;;18.45;46.74
79366;BME280;68833;53.160;17.920;2023-05-29T08:01:03;101202.04;;;18.49;46.82
79366;BME280;68833;53.160;17.920;2023-05-29T08:03:33;101202.26;;;18.54;46.73
79366;BME280;68833;53.160;17.920;2023-05-29T08:06:17;101197.98;;;18.59;46.66
79366;BME280;68833;53.160;17.920;2023-05-29T08:08:48;101197.84;;;18.63;46.50
79366;BME280;68833;53.160;17.920;2023-05-29T08:11:18;101204.27;;;18.67;45.83
79366;BME280;68833;53.160;17.920;2023-05-29T08:13:47;101203.77;;;18.72;45.48
79366;BME280;68833;53.160;17.920;2023-05-29T08:16:18;101205.92;;;18.76;45.03
79366;BME280;68833;53.160;17.920;2023-05-29T08:18:48;101207.36;;;18.81;44.86
79366;BME280;68833;53.160;17.920;2023-05-29T08:28:56;101211.95;;;19.08;44.61
79366;BME280;68833;53.160;17.920;2023-05-29T08:31:23;101213.47;;;19.16;44.26
79366;BME280;68833;53.160;17.920;2023-05-29T08:33:53;101214.16;;;19.21;43.98
79366;BME280;68833;53.160;17.920;2023-05-29T08:36:20;101219.08;;;19.23;43.62
79366;BME280;68833;53.160;17.920;2023-05-29T08:38:48;101220.27;;;19.25;43.57
79366;BME280;68833;53.160;17.920;2023-05-29T08:41:21;101217.29;;;19.28;43.54
79366;BME280;68833;53.160;17.920;2023-05-29T08:43:48;101218.85;;;19.34;42.94
79366;BME280;68833;53.160;17.920;2023-05-29T08:46:14;101217.80;;;19.38;42.79
79366;BME280;68833;53.160;17.920;2023-05-29T08:48:48;101214.45;;;19.43;42.50
79366;BME280;68833;53.160;17.920;2023-05-29T08:51:19;101217.98;;;19.48;42.37
79366;BME280;68833;53.160;17.920;2023-05-29T08:53:47;101216.97;;;19.55;42.38
79366;BME280;68833;53.160;17.920;2023-05-29T08:56:13;101216.35;;;19.58;41.39
79366;BME280;68833;53.160;17.920;2023-05-29T08:58:40;101211.61;;;19.56;41.06
79366;BME280;68833;53.160;17.920;2023-05-29T09:01:06;101219.80;;;19.56;41.31
79366;BME280;68833;53.160;17.920;2023-05-29T09:03:34;101219.77;;;19.57;41.53
79366;BME280;68833;53.160;17.920;2023-05-29T09:06:00;101217.84;;;19.61;41.65
79366;BME280;68833;53.160;17.920;2023-05-29T09:08:29;101218.96;;;19.64;41.23
79366;BME280;68833;53.160;17.920;2023-05-29T09:10:56;101223.05;;;19.69;40.97
79366;BME280;68833;53.160;17.920;2023-05-29T09:13:23;101220.61;;;19.72;40.42
79366;BME280;68833;53.160;17.920;2023-05-29T09:15:49;101220.80;;;19.77;40.44
79366;BME280;68833;53.160;17.920;2023-05-29T09:18:16;101215.64;;;19.82;40.68
79366;BME280;68833;53.160;17.920;2023-05-29T09:20:43;101222.44;;;19.90;40.34
79366;BME280;68833;53.160;17.920;2023-05-29T09:23:10;101227.84;;;19.94;40.16
79366;BME280;68833;53.160;17.920;2023-05-29T09:25:41;101227.21;;;19.96;40.04
79366;BME280;68833;53.160;17.920;2023-05-29T09:28:11;101225.23;;;20.01;40.15
79366;BME280;68833;53.160;17.920;2023-05-29T09:30:38;101219.09;;;20.07;40.23
79366;BME280;68833;53.160;17.920;2023-05-29T09:33:09;101216.98;;;20.16;39.99
79366;BME280;68833;53.160;17.920;2023-05-29T09:35:41;101213.58;;;20.20;39.79
79366;BME280;68833;53.160;17.920;2023-05-29T09:38:08;101223.78;;;20.15;39.24
79366;BME280;68833;53.160;17.920;2023-05-29T09:40:37;101223.88;;;20.12;39.23
79366;BME280;68833;53.160;17.920;2023-05-29T09:43:18;101220.06;;;20.19;39.37
79366;BME280;68833;53.160;17.920;2023-05-29T09:45:47;101216.83;;;20.28;39.06
79366;BME280;68833;53.160;17.920;2023-05-29T09:48:16;101208.52;;;20.34;38.79
79366;BME280;68833;53.160;17.920;2023-05-29T09:50:43;101204.79;;;20.43;38.98
79366;BME280;68833;53.160;17.920;2023-05-29T09:53:21;101210.23;;;20.58;38.94
79366;BME280;68833;53.160;17.920;2023-05-29T09:55:51;101203.41;;;20.67;38.68
79366;BME280;68833;53.160;17.920;2023-05-29T09:58:19;101202.60;;;20.79;38.19
79366;BME280;68833;53.160;17.920;2023-05-29T10:03:36;101209.24;;;20.94;37.51
79366;BME280;68833;53.160;17.920;2023-05-29T10:06:04;101210.91;;;20.93;37.29
79366;BME280;68833;53.160;17.920;2023-05-29T10:08:33;101206.60;;;20.89;37.07
79366;BME280;68833;53.160;17.920;2023-05-29T10:11:03;101204.73;;;20.95;37.22
79366;BME280;68833;53.160;17.920;2023-05-29T10:13:41;101204.94;;;20.98;36.73
79366;BME280;68833;53.160;17.920;2023-05-29T10:16:11;101202.45;;;20.86;36.96
79366;BME280;68833;53.160;17.920;2023-05-29T10:18:50;101200.30;;;20.74;36.95
79366;BME280;68833;53.160;17.920;2023-05-29T10:21:21;101192.75;;;20.62;37.16
79366;BME280;68833;53.160;17.920;2023-05-29T10:23:50;101192.15;;;20.68;37.32
79366;BME280;68833;53.160;17.920;2023-05-29T10:26:21;101194.85;;;20.76;37.00
79366;BME280;68833;53.160;17.920;2023-05-29T10:28:55;101194.20;;;20.70;36.91
79366;BME280;68833;53.160;17.920;2023-05-29T10:31:43;101199.84;;;20.59;36.97
79366;BME280;68833;53.160;17.920;2023-05-29T10:34:23;101196.58;;;20.52;37.04
79366;BME280;68833;53.160;17.920;2023-05-29T10:37:08;101193.96;;;20.50;37.05
79366;BME280;68833;53.160;17.920;2023-05-29T10:39:36;101197.52;;;20.46;36.75
79366;BME280;68833;53.160;17.920;2023-05-29T10:42:42;101198.81;;;20.53;36.76
79366;BME280;68833;53.160;17.920;2023-05-29T10:45:10;101201.27;;;20.63;36.83
79366;BME280;68833;53.160;17.920;2023-05-29T10:47:40;101203.13;;;20.61;36.63
79366;BME280;68833;53.160;17.920;2023-05-29T10:50:09;101204.29;;;20.55;36.41
79366;BME280;68833;53.160;17.920;2023-05-29T10:52:46;101204.41;;;20.48;36.54
79366;BME280;68833;53.160;17.920;2023-05-29T10:55:16;101196.32;;;20.41;36.38
79366;BME280;68833;53.160;17.920;2023-05-29T10:57:47;101191.52;;;20.49;36.57
79366;BME280;68833;53.160;17.920;2023-05-29T11:00:17;101181.19;;;20.61;36.25
79366;BME280;68833;53.160;17.920;2023-05-29T11:02:45;101189.05;;;20.78;36.00
79366;BME280;68833;53.160;17.920;2023-05-29T11:05:23;101188.73;;;20.85;35.10
79366;BME280;68833;53.160;17.920;2023-05-29T11:07:58;101189.14;;;20.96;35.11
79366;BME280;68833;53.160;17.920;2023-05-29T11:10:55;101179.92;;;21.02;34.83
79366;BME280;68833;53.160;17.920;2023-05-29T11:13:27;101182.55;;;21.12;34.51
79366;BME280;68833;53.160;17.920;2023-05-29T11:18:41;101175.67;;;21.26;34.25
79366;BME280;68833;53.160;17.920;2023-05-29T11:24:02;101169.02;;;21.34;34.28
79366;BME280;68833;53.160;17.920;2023-05-29T11:26:30;101171.73;;;21.34;34.17
79366;BME280;68833;53.160;17.920;2023-05-29T11:28:59;101169.46;;;21.40;33.62
79366;BME280;68833;53.160;17.920;2023-05-29T11:31:28;101169.80;;;21.53;34.00
79366;BME280;68833;53.160;17.920;2023-05-29T11:34:00;101169.27;;;21.60;33.84
79366;BME280;68833;53.160;17.920;2023-05-29T11:36:28;101169.84;;;21.67;33.62
79366;BME280;68833;53.160;17.920;2023-05-29T11:38:55;101169.17;;;21.70;33.34
79366;BME280;68833;53.160;17.920;2023-05-29T11:41:23;101171.60;;;21.68;33.28
79366;BME280;68833;53.160;17.920;2023-05-29T11:44:00;101166.45;;;21.70;33.14
79366;BME280;68833;53.160;17.920;2023-05-29T11:46:32;101158.35;;;21.76;32.94
79366;BME280;68833;53.160;17.920;2023-05-29T11:49:01;101160.63;;;21.69;33.10
79366;BME280;68833;53.160;17.920;2023-05-29T11:51:28;101162.17;;;21.59;33.17
79366;BME280;68833;53.160;17.920;2023-05-29T11:53:55;101162.81;;;21.48;33.11
79366;BME280;68833;53.160;17.920;2023-05-29T11:56:26;101163.83;;;21.38;33.30
79366;BME280;68833;53.160;17.920;2023-05-29T11:58:55;101162.73;;;21.35;33.41
79366;BME280;68833;53.160;17.920;2023-05-29T12:01:24;101167.38;;;21.35;33.21
79366;BME280;68833;53.160;17.920;2023-05-29T12:03:52;101158.10;;;21.35;33.00
79366;BME280;68833;53.160;17.920;2023-05-29T12:06:32;101156.29;;;21.35;32.68
79366;BME280;68833;53.160;17.920;2023-05-29T12:09:00;101159.54;;;21.34;32.69
79366;BME280;68833;53.160;17.920;2023-05-29T12:11:29;101157.88;;;21.35;32.81
79366;BME280;68833;53.160;17.920;2023-05-29T12:13:58;101156.17;;;21.37;32.52
79366;BME280;68833;53.160;17.920;2023-05-29T12:16:27;101153.02;;;21.36;32.39
79366;BME280;68833;53.160;17.920;2023-05-29T12:18:57;101156.05;;;21.36;32.53
79366;BME280;68833;53.160;17.920;2023-05-29T12:21:24;101154.38;;;21.38;32.60
79366;BME280;68833;53.160;17.920;2023-05-29T12:23:52;101154.33;;;21.39;32.33
79366;BME280;68833;53.160;17.920;2023-05-29T12:26:23;101158.40;;;21.40;32.35
79366;BME280;68833;53.160;17.920;2023-05-29T12:28:52;101156.51;;;21.42;32.06
79366;BME280;68833;53.160;17.920;2023-05-29T12:31:27;101152.88;;;21.44;32.02
79366;BME280;68833;53.160;17.920;2023-05-29T12:34:02;101144.69;;;21.43;32.05
79366;BME280;68833;53.160;17.920;2023-05-29T12:36:29;101143.17;;;21.41;32.07
79366;BME280;68833;53.160;17.920;2023-05-29T12:38:57;101142.38;;;21.38;32.45
79366;BME280;68833;53.160;17.920;2023-05-29T12:41:29;101147.85;;;21.40;32.14
79366;BME280;68833;53.160;17.920;2023-05-29T12:43:57;101149.10;;;21.44;32.20
79366;BME280;68833;53.160;17.920;2023-05-29T12:46:25;101149.68;;;21.50;32.05
79366;BME280;68833;53.160;17.920;2023-05-29T12:48:54;101144.88;;;21.58;32.16
79366;BME280;68833;53.160;17.920;2023-05-29T12:51:28;101142.14;;;21.63;31.71
79366;BME280;68833;53.160;17.920;2023-05-29T12:53:55;101145.27;;;21.65;31.82
79366;BME280;68833;53.160;17.920;2023-05-29T12:56:24;101144.16;;;21.66;31.91
79366;BME280;68833;53.160;17.920;2023-05-29T12:58:53;101141.55;;;21.68;31.95
79366;BME280;68833;53.160;17.920;2023-05-29T13:01:20;101144.73;;;21.69;32.08
79366;BME280;68833;53.160;17.920;2023-05-29T13:03:47;101144.63;;;21.71;31.73
79366;BME280;68833;53.160;17.920;2023-05-29T13:06:14;101137.22;;;21.72;31.94
79366;BME280;68833;53.160;17.920;2023-05-29T13:08:41;101134.88;;;21.77;32.18
79366;BME280;68833;53.160;17.920;2023-05-29T13:11:09;101131.56;;;21.79;32.04
79366;BME280;68833;53.160;17.920;2023-05-29T13:13:36;101131.48;;;21.80;31.89
79366;BME280;68833;53.160;17.920;2023-05-29T13:16:03;101128.09;;;21.84;31.97